Terminal Aerodrome Forecast
Issued by NWS

Home | Current Version | Previous Version | Text Only | Print | Product List | Glossary Off
Versions: 1 2 3 4 5 6 7 8 9 10 11 12 13 14 15

000
FTUS43 KICT 251720
TAFHUT
TAF
KHUT 251720Z 2518/2618 16009KT P6SM FEW100
     FM252000 18013G22KT P6SM FEW060
     FM260200 17007KT P6SM VCTS SCT060CB BKN090
     FM261000 18009KT P6SM BKN150=

USA.gov is the U.S. government's official web portal to all federal, state and local government web resources and services.